createdAt,value
2018-06-23T00:00:04.452Z,76
2018-06-23T00:00:16.916Z,76
2018-06-23T00:00:29.382Z,76
2018-06-23T00:00:41.859Z,76
2018-06-23T00:00:54.470Z,76
2018-06-23T00:01:06.948Z,76
2018-06-23T00:01:19.532Z,76
2018-06-23T00:01:31.949Z,76
2018-06-23T00:01:44.370Z,76
2018-06-23T00:01:56.808Z,76
2018-06-23T00:02:09.233Z,76
2018-06-23T00:02:21.660Z,76
2018-06-23T00:02:34.084Z,76
2018-06-23T00:02:46.497Z,76
2018-06-23T00:02:58.945Z,76
2018-06-23T00:03:11.363Z,76
2018-06-23T00:03:23.794Z,76
2018-06-23T00:03:36.223Z,76
2018-06-23T00:03:48.648Z,76
2018-06-23T00:04:01.102Z,76
2018-06-23T00:04:13.665Z,76
2018-06-23T00:04:26.130Z,76
2018-06-23T00:04:38.528Z,76
2018-06-23T00:04:50.936Z,76
2018-06-23T00:05:03.347Z,76
2018-06-23T00:05:15.756Z,76
2018-06-23T00:05:28.144Z,76
2018-06-23T00:05:40.539Z,76
2018-06-23T00:05:52.957Z,76
2018-06-23T00:06:05.445Z,76
2018-06-23T00:06:17.857Z,76
2018-06-23T00:06:30.277Z,76
2018-06-23T00:06:42.690Z,76
2018-06-23T00:06:55.111Z,76
2018-06-23T00:07:07.542Z,76
2018-06-23T00:07:19.955Z,76
2018-06-23T00:07:32.355Z,76
2018-06-23T00:07:44.863Z,76
2018-06-23T00:07:57.282Z,76
2018-06-23T00:08:09.675Z,76
2018-06-23T00:08:22.085Z,76
2018-06-23T00:08:34.531Z,76
2018-06-23T00:08:46.928Z,76
2018-06-23T00:08:59.323Z,76
2018-06-23T00:09:11.731Z,76
2018-06-23T00:09:24.151Z,76
2018-06-23T00:09:36.562Z,76
2018-06-23T00:09:49.006Z,76
2018-06-23T00:10:01.423Z,76
2018-06-23T00:10:13.837Z,76
2018-06-23T00:10:26.264Z,76
2018-06-23T00:10:38.661Z,76
2018-06-23T00:10:51.066Z,76
2018-06-23T00:11:03.488Z,76
2018-06-23T00:11:15.879Z,76
2018-06-23T00:11:28.289Z,76
2018-06-23T00:11:40.688Z,76
2018-06-23T00:11:53.107Z,76
2018-06-23T00:12:05.554Z,76
2018-06-23T00:12:17.975Z,76
2018-06-23T00:12:30.386Z,76
2018-06-23T00:12:42.815Z,76
2018-06-23T00:12:55.215Z,76
2018-06-23T00:13:07.633Z,76
2018-06-23T00:13:20.050Z,76
2018-06-23T00:13:32.458Z,76
2018-06-23T00:13:44.864Z,76
2018-06-23T00:13:57.268Z,76
2018-06-23T00:14:09.707Z,76
2018-06-23T00:14:22.133Z,76
2018-06-23T00:14:34.543Z,76
2018-06-23T00:14:46.945Z,76
2018-06-23T00:14:59.356Z,76
2018-06-23T00:15:11.765Z,76
2018-06-23T00:15:24.170Z,76
2018-06-23T00:15:36.577Z,76
2018-06-23T00:15:48.989Z,76
2018-06-23T00:16:01.395Z,76
2018-06-23T00:16:13.859Z,76
2018-06-23T00:16:26.413Z,76
2018-06-23T00:16:38.818Z,76
2018-06-23T00:16:51.224Z,76
2018-06-23T00:17:03.635Z,76
2018-06-23T00:17:16.041Z,76
2018-06-23T00:17:28.441Z,76
2018-06-23T00:17:40.852Z,76
2018-06-23T00:17:53.252Z,76
2018-06-23T00:18:05.659Z,75
2018-06-23T00:18:18.070Z,75
2018-06-23T00:18:30.549Z,75
2018-06-23T00:18:42.957Z,75
2018-06-23T00:18:55.373Z,75
2018-06-23T00:19:07.784Z,76
2018-06-23T00:19:20.208Z,76
2018-06-23T00:19:32.611Z,76
2018-06-23T00:19:45.046Z,76
2018-06-23T00:19:57.445Z,76
2018-06-23T00:20:09.905Z,76
2018-06-23T00:20:22.325Z,76
2018-06-23T00:20:34.731Z,76
2018-06-23T00:20:47.299Z,75
2018-06-23T00:20:59.755Z,75
2018-06-23T00:21:12.168Z,75
2018-06-23T00:21:24.598Z,75
2018-06-23T00:21:37.043Z,75
2018-06-23T00:21:49.483Z,75
2018-06-23T00:22:01.935Z,75
2018-06-23T00:22:14.367Z,75
2018-06-23T00:22:26.775Z,76
2018-06-23T00:22:39.187Z,76
2018-06-23T00:22:51.617Z,76
2018-06-23T00:23:04.028Z,76
2018-06-23T00:23:16.456Z,76
2018-06-23T00:23:28.842Z,76
2018-06-23T00:23:41.236Z,76
2018-06-23T00:23:53.663Z,76
2018-06-23T00:24:06.068Z,76
2018-06-23T00:24:18.480Z,76
2018-06-23T00:24:30.877Z,76
2018-06-23T00:24:43.298Z,76
2018-06-23T00:24:55.709Z,76
2018-06-23T00:25:08.123Z,76
2018-06-23T00:25:20.684Z,76
2018-06-23T00:25:33.120Z,76
2018-06-23T00:25:45.525Z,76
2018-06-23T00:25:57.940Z,76
2018-06-23T00:26:10.371Z,76
2018-06-23T00:26:22.804Z,76
2018-06-23T00:26:35.263Z,76
2018-06-23T00:26:47.682Z,76
2018-06-23T00:27:00.113Z,76
2018-06-23T00:27:12.532Z,76
2018-06-23T00:27:24.941Z,76
2018-06-23T00:27:37.404Z,76
2018-06-23T00:27:49.814Z,76
2018-06-23T00:28:02.225Z,76
2018-06-23T00:28:14.619Z,76
2018-06-23T00:28:27.035Z,76
2018-06-23T00:28:39.475Z,76
2018-06-23T00:28:51.966Z,76
2018-06-23T00:29:04.371Z,76
2018-06-23T00:29:16.799Z,76
2018-06-23T00:29:29.202Z,76
2018-06-23T00:29:41.611Z,76
2018-06-23T00:29:54.061Z,76
2018-06-23T00:30:06.489Z,75
2018-06-23T00:30:18.925Z,75
2018-06-23T00:30:31.329Z,75
2018-06-23T00:30:43.740Z,75
2018-06-23T00:30:56.515Z,75
2018-06-23T00:31:08.962Z,75
2018-06-23T00:31:21.372Z,75
2018-06-23T00:31:33.779Z,75
2018-06-23T00:31:46.228Z,75
2018-06-23T00:31:58.624Z,75
2018-06-23T00:32:11.037Z,75
2018-06-23T00:32:23.503Z,75
2018-06-23T00:32:35.902Z,75
2018-06-23T00:32:48.331Z,75
2018-06-23T00:33:00.756Z,75
2018-06-23T00:33:13.187Z,75
2018-06-23T00:33:25.601Z,75
2018-06-23T00:33:38.016Z,75
2018-06-23T00:33:50.413Z,75
2018-06-23T00:34:02.826Z,75
2018-06-23T00:34:15.241Z,75
2018-06-23T00:34:27.658Z,75
2018-06-23T00:34:40.043Z,75
2018-06-23T00:34:52.453Z,75
2018-06-23T00:35:04.863Z,75
2018-06-23T00:35:17.260Z,75
2018-06-23T00:35:29.676Z,75
2018-06-23T00:35:42.120Z,75
2018-06-23T00:35:54.515Z,75
2018-06-23T00:36:06.931Z,75
2018-06-23T00:36:19.344Z,75
2018-06-23T00:36:31.784Z,75
2018-06-23T00:36:44.260Z,75
2018-06-23T00:36:56.731Z,75
2018-06-23T00:37:09.171Z,75
2018-06-23T00:37:21.579Z,75
2018-06-23T00:37:34.014Z,75
2018-06-23T00:37:46.419Z,75
2018-06-23T00:37:58.836Z,75
2018-06-23T00:38:11.255Z,75
2018-06-23T00:38:23.701Z,75
2018-06-23T00:38:36.117Z,75
2018-06-23T00:38:48.526Z,75
2018-06-23T00:39:00.965Z,75
2018-06-23T00:39:13.379Z,75
2018-06-23T00:39:25.838Z,75
2018-06-23T00:39:38.252Z,75
2018-06-23T00:39:50.649Z,75
2018-06-23T00:40:03.054Z,75
2018-06-23T00:40:15.456Z,75
2018-06-23T00:40:27.876Z,75
2018-06-23T00:40:40.311Z,75
2018-06-23T00:40:52.719Z,75
2018-06-23T00:41:05.152Z,75
2018-06-23T00:41:17.558Z,75
2018-06-23T00:41:29.985Z,75
2018-06-23T00:41:42.372Z,75
2018-06-23T00:41:54.759Z,75
2018-06-23T00:42:07.162Z,75
2018-06-23T00:42:19.555Z,75
2018-06-23T00:42:32.032Z,75
2018-06-23T00:42:44.444Z,75
2018-06-23T00:42:56.859Z,75
2018-06-23T00:43:09.277Z,75
2018-06-23T00:43:21.683Z,75
2018-06-23T00:43:34.208Z,75
2018-06-23T00:43:46.612Z,75
2018-06-23T00:43:59.044Z,75
2018-06-23T00:44:11.456Z,75
2018-06-23T00:44:23.871Z,75
2018-06-23T00:44:36.277Z,75
2018-06-23T00:44:48.712Z,75
2018-06-23T00:45:01.108Z,75
2018-06-23T00:45:13.530Z,75
2018-06-23T00:45:25.958Z,75
2018-06-23T00:45:38.376Z,75
2018-06-23T00:45:50.789Z,75
2018-06-23T00:46:03.393Z,75
2018-06-23T00:46:15.830Z,75
2018-06-23T00:46:28.232Z,75
2018-06-23T00:46:40.644Z,75
2018-06-23T00:46:53.066Z,75
2018-06-23T00:47:05.487Z,75
2018-06-23T00:47:17.900Z,75
2018-06-23T00:47:30.377Z,75
2018-06-23T00:47:42.792Z,75
2018-06-23T00:47:55.213Z,75
2018-06-23T00:48:07.635Z,75
2018-06-23T00:48:20.045Z,75
2018-06-23T00:48:32.435Z,75
2018-06-23T00:48:45.018Z,75
2018-06-23T00:48:57.418Z,75
2018-06-23T00:49:09.824Z,75
2018-06-23T00:49:22.235Z,75
2018-06-23T00:49:34.639Z,75
2018-06-23T00:49:47.034Z,75
2018-06-23T00:49:59.450Z,75
2018-06-23T00:50:11.907Z,75
2018-06-23T00:50:24.307Z,75
2018-06-23T00:50:36.707Z,75
2018-06-23T00:50:49.123Z,75
2018-06-23T00:51:01.520Z,75
2018-06-23T00:51:13.931Z,75
2018-06-23T00:51:26.351Z,76
2018-06-23T00:51:38.859Z,76
2018-06-23T00:51:51.247Z,76
2018-06-23T00:52:03.643Z,76
2018-06-23T00:52:16.062Z,76
2018-06-23T00:52:28.488Z,76
2018-06-23T00:52:40.896Z,76
2018-06-23T00:52:53.291Z,76
2018-06-23T00:53:05.677Z,76
2018-06-23T00:53:18.063Z,76
2018-06-23T00:53:30.489Z,76
2018-06-23T00:53:42.889Z,76
2018-06-23T00:53:55.293Z,76
2018-06-23T00:54:07.713Z,76
2018-06-23T00:54:20.113Z,76
2018-06-23T00:54:32.536Z,76
2018-06-23T00:54:44.938Z,76
2018-06-23T00:54:57.575Z,76
2018-06-23T00:55:10.004Z,76
2018-06-23T00:55:22.446Z,76
2018-06-23T00:55:34.853Z,76
2018-06-23T00:55:47.273Z,75
2018-06-23T00:55:59.668Z,75
2018-06-23T00:56:12.067Z,75
2018-06-23T00:56:24.461Z,75
2018-06-23T00:56:36.904Z,75
2018-06-23T00:56:49.372Z,75
2018-06-23T00:57:01.790Z,75
2018-06-23T00:57:14.216Z,75
2018-06-23T00:57:26.620Z,76
2018-06-23T00:57:39.027Z,76
2018-06-23T00:57:51.460Z,76
2018-06-23T00:58:03.863Z,76
2018-06-23T00:58:16.283Z,76
2018-06-23T00:58:28.695Z,76
2018-06-23T00:58:41.080Z,76
2018-06-23T00:58:53.486Z,76
2018-06-23T00:59:05.913Z,76
2018-06-23T00:59:18.429Z,76
2018-06-23T00:59:30.836Z,76
2018-06-23T00:59:43.240Z,76
2018-06-23T00:59:55.649Z,75
2018-06-23T01:00:08.073Z,75
2018-06-23T01:00:20.522Z,75
2018-06-23T01:00:32.972Z,75
2018-06-23T01:00:45.402Z,75
2018-06-23T01:00:57.981Z,76
2018-06-23T01:01:10.561Z,76
2018-06-23T01:01:22.978Z,76
2018-06-23T01:01:35.457Z,76
2018-06-23T01:01:47.872Z,76
2018-06-23T01:02:00.339Z,76
2018-06-23T01:02:12.750Z,76
2018-06-23T01:02:25.209Z,76
2018-06-23T01:02:37.610Z,76
2018-06-23T01:02:50.001Z,76
2018-06-23T01:03:02.412Z,76
2018-06-23T01:03:14.825Z,76
2018-06-23T01:03:27.267Z,76
2018-06-23T01:03:39.740Z,76
2018-06-23T01:03:52.140Z,76
2018-06-23T01:04:04.562Z,76
2018-06-23T01:04:17.084Z,76
2018-06-23T01:04:29.490Z,76
2018-06-23T01:04:41.936Z,76
2018-06-23T01:04:54.359Z,76
2018-06-23T01:05:06.791Z,76
2018-06-23T01:05:19.227Z,76
2018-06-23T01:05:31.642Z,76
2018-06-23T01:05:44.056Z,76
2018-06-23T01:05:56.476Z,76
2018-06-23T01:06:08.890Z,76
2018-06-23T01:06:21.291Z,76
2018-06-23T01:06:33.716Z,76
2018-06-23T01:06:46.160Z,76
2018-06-23T01:06:58.603Z,76
2018-06-23T01:07:11.006Z,76
2018-06-23T01:07:23.414Z,76
2018-06-23T01:07:35.823Z,76
2018-06-23T01:07:48.381Z,75
2018-06-23T01:08:00.779Z,75
2018-06-23T01:08:13.186Z,75
2018-06-23T01:08:25.605Z,75
2018-06-23T01:08:38.037Z,76
2018-06-23T01:08:50.451Z,76
2018-06-23T01:09:02.859Z,76
2018-06-23T01:09:15.355Z,76
2018-06-23T01:09:27.862Z,76
2018-06-23T01:09:40.276Z,75
2018-06-23T01:09:52.690Z,75
2018-06-23T01:10:05.114Z,75
2018-06-23T01:10:17.538Z,75
2018-06-23T01:10:29.935Z,75
2018-06-23T01:10:42.350Z,75
2018-06-23T01:10:54.763Z,75
2018-06-23T01:11:07.166Z,75
2018-06-23T01:11:19.582Z,75
2018-06-23T01:11:31.978Z,75
2018-06-23T01:11:44.395Z,75
2018-06-23T01:11:56.806Z,75
2018-06-23T01:12:09.226Z,75
2018-06-23T01:12:21.617Z,75
2018-06-23T01:12:34.018Z,75
2018-06-23T01:12:46.428Z,75
2018-06-23T01:12:58.811Z,75
2018-06-23T01:13:11.215Z,75
2018-06-23T01:13:23.633Z,75
2018-06-23T01:13:36.046Z,75
2018-06-23T01:13:48.433Z,75
2018-06-23T01:14:00.834Z,75
2018-06-23T01:14:13.255Z,75
2018-06-23T01:14:25.722Z,75
2018-06-23T01:14:38.137Z,75
2018-06-23T01:14:50.542Z,75
2018-06-23T01:15:02.960Z,75
2018-06-23T01:15:15.450Z,75
2018-06-23T01:15:27.855Z,75
2018-06-23T01:15:40.276Z,75
2018-06-23T01:15:52.673Z,75
2018-06-23T01:16:05.101Z,75
2018-06-23T01:16:17.497Z,75
2018-06-23T01:16:29.911Z,75
2018-06-23T01:16:42.327Z,75
2018-06-23T01:16:54.715Z,75
2018-06-23T01:17:07.288Z,75
2018-06-23T01:17:19.706Z,75
2018-06-23T01:17:32.111Z,75
2018-06-23T01:17:44.518Z,75
2018-06-23T01:17:56.944Z,75
2018-06-23T01:18:09.358Z,75
2018-06-23T01:18:21.769Z,75
2018-06-23T01:18:34.185Z,75
2018-06-23T01:18:46.618Z,75
2018-06-23T01:18:59.032Z,75
2018-06-23T01:19:11.455Z,75
2018-06-23T01:19:23.875Z,75
2018-06-23T01:19:36.288Z,75
2018-06-23T01:19:48.689Z,75
2018-06-23T01:20:01.120Z,75
2018-06-23T01:20:13.556Z,75
2018-06-23T01:20:25.974Z,75
2018-06-23T01:20:38.498Z,75
2018-06-23T01:20:50.906Z,75
2018-06-23T01:21:03.314Z,75
2018-06-23T01:21:15.720Z,75
2018-06-23T01:21:28.181Z,75
2018-06-23T01:21:40.592Z,75
2018-06-23T01:21:53.013Z,75
2018-06-23T01:22:05.436Z,75
2018-06-23T01:22:17.870Z,75
2018-06-23T01:22:30.298Z,75
2018-06-23T01:22:42.712Z,75
2018-06-23T01:22:55.124Z,75
2018-06-23T01:23:07.527Z,74
2018-06-23T01:23:19.912Z,74
2018-06-23T01:23:32.339Z,74
2018-06-23T01:23:44.761Z,74
2018-06-23T01:23:57.181Z,74
2018-06-23T01:24:09.588Z,74
2018-06-23T01:24:21.998Z,74
2018-06-23T01:24:34.399Z,74
2018-06-23T01:24:46.808Z,74
2018-06-23T01:24:59.202Z,74
2018-06-23T01:25:11.647Z,74
2018-06-23T01:25:24.182Z,74
2018-06-23T01:25:36.595Z,75
2018-06-23T01:25:48.994Z,75
2018-06-23T01:26:01.386Z,75
2018-06-23T01:26:13.783Z,75
2018-06-23T01:26:26.185Z,74
2018-06-23T01:26:38.602Z,74
2018-06-23T01:26:51.004Z,74
2018-06-23T01:27:03.410Z,74
2018-06-23T01:27:15.833Z,74
2018-06-23T01:27:28.253Z,74
2018-06-23T01:27:40.691Z,74
2018-06-23T01:27:53.098Z,74
2018-06-23T01:28:05.611Z,74
2018-06-23T01:28:18.087Z,74
2018-06-23T01:28:30.626Z,74
2018-06-23T01:28:43.037Z,74
2018-06-23T01:28:55.458Z,74
2018-06-23T01:29:08.025Z,74
2018-06-23T01:29:20.435Z,74
2018-06-23T01:29:32.861Z,74
2018-06-23T01:29:45.258Z,74
2018-06-23T01:29:57.667Z,74
2018-06-23T01:30:10.084Z,74
2018-06-23T01:30:22.483Z,74
2018-06-23T01:30:34.886Z,74
2018-06-23T01:30:47.312Z,74
2018-06-23T01:31:00.059Z,74
2018-06-23T01:31:12.481Z,74
2018-06-23T01:31:24.877Z,74
2018-06-23T01:31:37.282Z,74
2018-06-23T01:31:49.692Z,74
2018-06-23T01:32:02.085Z,74
2018-06-23T01:32:14.513Z,74
2018-06-23T01:32:26.917Z,74
2018-06-23T01:32:39.337Z,74
2018-06-23T01:32:51.761Z,74
2018-06-23T01:33:04.179Z,74
2018-06-23T01:33:16.593Z,74
2018-06-23T01:33:29.014Z,74
2018-06-23T01:33:41.424Z,74
2018-06-23T01:33:53.829Z,74
2018-06-23T01:34:06.259Z,74
2018-06-23T01:34:18.663Z,74
2018-06-23T01:34:31.075Z,74
2018-06-23T01:34:43.467Z,74
2018-06-23T01:34:55.886Z,74
2018-06-23T01:35:08.299Z,74
2018-06-23T01:35:20.701Z,74
2018-06-23T01:35:33.096Z,74
2018-06-23T01:35:45.486Z,74
2018-06-23T01:35:57.942Z,74
2018-06-23T01:36:10.426Z,74
2018-06-23T01:36:22.834Z,74
2018-06-23T01:36:35.228Z,74
2018-06-23T01:36:47.651Z,73
2018-06-23T01:37:00.079Z,73
2018-06-23T01:37:12.470Z,73
2018-06-23T01:37:24.871Z,73
2018-06-23T01:37:37.269Z,73
2018-06-23T01:37:49.674Z,73
2018-06-23T01:38:02.071Z,73
2018-06-23T01:38:14.474Z,73
2018-06-23T01:38:26.862Z,73
2018-06-23T01:38:39.258Z,73
2018-06-23T01:38:51.708Z,73
2018-06-23T01:39:04.134Z,73
2018-06-23T01:39:16.540Z,73
2018-06-23T01:39:28.942Z,73
2018-06-23T01:39:41.332Z,73
2018-06-23T01:39:53.792Z,73
2018-06-23T01:40:06.208Z,73
2018-06-23T01:40:18.641Z,73
2018-06-23T01:40:31.055Z,73
2018-06-23T01:40:43.442Z,73
2018-06-23T01:40:55.851Z,73
2018-06-23T01:41:08.322Z,73
2018-06-23T01:41:20.721Z,73
2018-06-23T01:41:33.132Z,73
2018-06-23T01:41:45.540Z,73
2018-06-23T01:41:57.953Z,73
2018-06-23T01:42:10.358Z,73
2018-06-23T01:42:22.778Z,73
2018-06-23T01:42:35.183Z,73
2018-06-23T01:42:47.631Z,73
2018-06-23T01:43:00.040Z,73
2018-06-23T01:43:12.444Z,73
2018-06-23T01:43:24.897Z,73
2018-06-23T01:43:37.333Z,73
2018-06-23T01:43:49.748Z,73
2018-06-23T01:44:02.144Z,73
2018-06-23T01:44:14.552Z,73
2018-06-23T01:44:26.976Z,73
2018-06-23T01:44:39.393Z,73
2018-06-23T01:44:51.784Z,73
2018-06-23T01:45:04.176Z,73
2018-06-23T01:45:16.644Z,73
2018-06-23T01:45:29.046Z,73
2018-06-23T01:45:41.451Z,73
2018-06-23T01:45:54.044Z,73
2018-06-23T01:46:06.456Z,73
2018-06-23T01:46:18.888Z,73
2018-06-23T01:46:31.311Z,73
2018-06-23T01:46:43.729Z,73
2018-06-23T01:46:56.145Z,72
2018-06-23T01:47:08.556Z,72
2018-06-23T01:47:20.995Z,72
2018-06-23T01:47:33.394Z,72
2018-06-23T01:47:45.804Z,72
2018-06-23T01:47:58.206Z,72
2018-06-23T01:48:10.612Z,72
2018-06-23T01:48:23.016Z,72
2018-06-23T01:48:35.590Z,72
2018-06-23T01:48:47.985Z,72
2018-06-23T01:49:00.393Z,72
2018-06-23T01:49:12.799Z,72
2018-06-23T01:49:25.217Z,72
2018-06-23T01:49:37.618Z,72
2018-06-23T01:49:50.018Z,72
2018-06-23T01:50:02.463Z,72
2018-06-23T01:50:14.936Z,72
2018-06-23T01:50:27.344Z,72
2018-06-23T01:50:39.735Z,72
2018-06-23T01:50:52.139Z,72
2018-06-23T01:51:04.557Z,72
2018-06-23T01:51:17.019Z,72
2018-06-23T01:51:29.602Z,72
2018-06-23T01:51:42.007Z,72
2018-06-23T01:51:54.433Z,72
2018-06-23T01:52:06.852Z,72
2018-06-23T01:52:19.254Z,72
2018-06-23T01:52:31.685Z,72
2018-06-23T01:52:44.111Z,72
2018-06-23T01:52:56.495Z,72
2018-06-23T01:53:08.899Z,72
2018-06-23T01:53:21.318Z,72
2018-06-23T01:53:33.754Z,72
2018-06-23T01:53:46.164Z,72
2018-06-23T01:53:58.588Z,72
2018-06-23T01:54:11.010Z,72
2018-06-23T01:54:23.424Z,72
2018-06-23T01:54:35.819Z,72
2018-06-23T01:54:48.227Z,72
2018-06-23T01:55:00.635Z,72
2018-06-23T01:55:13.043Z,72
2018-06-23T01:55:25.451Z,72
2018-06-23T01:55:37.869Z,72
2018-06-23T01:55:50.248Z,72
2018-06-23T01:56:02.651Z,72
2018-06-23T01:56:15.052Z,72
2018-06-23T01:56:27.466Z,72
2018-06-23T01:56:39.907Z,72
2018-06-23T01:56:52.347Z,72
2018-06-23T01:57:04.770Z,72
2018-06-23T01:57:17.190Z,72
2018-06-23T01:57:29.607Z,72
2018-06-23T01:57:42.011Z,72
2018-06-23T01:57:54.419Z,72
2018-06-23T01:58:06.836Z,72
2018-06-23T01:58:19.229Z,72
2018-06-23T01:58:31.653Z,72
2018-06-23T01:58:44.070Z,72
2018-06-23T01:58:56.478Z,72
2018-06-23T01:59:08.898Z,72
2018-06-23T01:59:21.327Z,72
2018-06-23T01:59:33.806Z,72
2018-06-23T01:59:46.217Z,72
2018-06-23T01:59:58.618Z,72
2018-06-23T02:00:11.063Z,72
2018-06-23T02:00:23.491Z,72
2018-06-23T02:00:35.911Z,72
2018-06-23T02:00:48.342Z,72
2018-06-23T02:01:00.899Z,72
2018-06-23T02:01:13.472Z,72
2018-06-23T02:01:25.893Z,72
2018-06-23T02:01:38.305Z,72
2018-06-23T02:01:50.734Z,72
2018-06-23T02:02:03.156Z,72
2018-06-23T02:02:15.556Z,72
2018-06-23T02:02:28.041Z,72
2018-06-23T02:02:40.490Z,72
2018-06-23T02:02:52.902Z,72
2018-06-23T02:03:05.315Z,72
2018-06-23T02:03:17.717Z,72
2018-06-23T02:03:30.153Z,72
2018-06-23T02:03:42.576Z,72
2018-06-23T02:03:55.007Z,72
2018-06-23T02:04:07.422Z,72
2018-06-23T02:04:20.048Z,72
2018-06-23T02:04:32.491Z,72
2018-06-23T02:04:44.904Z,72
2018-06-23T02:04:57.325Z,72
2018-06-23T02:05:09.739Z,72
2018-06-23T02:05:22.171Z,72
2018-06-23T02:05:34.602Z,72
2018-06-23T02:05:46.999Z,72
2018-06-23T02:05:59.426Z,72
2018-06-23T02:06:11.819Z,72
2018-06-23T02:06:24.257Z,72
2018-06-23T02:06:36.672Z,72
2018-06-23T02:06:49.065Z,72
2018-06-23T02:07:01.471Z,72
2018-06-23T02:07:13.879Z,72
2018-06-23T02:07:26.294Z,72
2018-06-23T02:07:38.862Z,72
2018-06-23T02:07:51.272Z,72
2018-06-23T02:08:03.692Z,72
2018-06-23T02:08:16.100Z,72
2018-06-23T02:08:28.536Z,72
2018-06-23T02:08:40.955Z,72
2018-06-23T02:08:53.381Z,72
2018-06-23T02:09:05.817Z,72
2018-06-23T02:09:18.212Z,72
2018-06-23T02:09:30.616Z,72
2018-06-23T02:09:43.038Z,72
2018-06-23T02:09:55.482Z,72
2018-06-23T02:10:07.911Z,72
2018-06-23T02:10:20.318Z,72
2018-06-23T02:10:32.706Z,72
2018-06-23T02:10:45.140Z,72
2018-06-23T02:10:57.562Z,72
2018-06-23T02:11:09.982Z,72
2018-06-23T02:11:22.393Z,72
2018-06-23T02:11:34.823Z,72
2018-06-23T02:11:47.240Z,72
2018-06-23T02:11:59.626Z,72
2018-06-23T02:12:12.034Z,72
2018-06-23T02:12:24.478Z,72
2018-06-23T02:12:36.904Z,72
2018-06-23T02:12:49.312Z,72
2018-06-23T02:13:01.736Z,72
2018-06-23T02:13:14.148Z,72
2018-06-23T02:13:26.589Z,72
2018-06-23T02:13:39.009Z,72
2018-06-23T02:13:51.427Z,72
2018-06-23T02:14:03.835Z,72
2018-06-23T02:14:16.266Z,72
2018-06-23T02:14:28.709Z,72
2018-06-23T02:14:41.153Z,72
2018-06-23T02:14:53.581Z,72
2018-06-23T02:15:06.003Z,71
2018-06-23T02:15:18.436Z,71
2018-06-23T02:15:30.841Z,71
2018-06-23T02:15:43.307Z,71
2018-06-23T02:15:55.703Z,71
2018-06-23T02:16:08.103Z,72
2018-06-23T02:16:20.521Z,72
2018-06-23T02:16:32.938Z,72
2018-06-23T02:16:45.349Z,72
2018-06-23T02:16:57.735Z,72
2018-06-23T02:17:10.141Z,72
2018-06-23T02:17:22.600Z,72
2018-06-23T02:17:35.009Z,72
2018-06-23T02:17:47.412Z,71
2018-06-23T02:17:59.826Z,71
2018-06-23T02:18:12.234Z,71
2018-06-23T02:18:24.643Z,71
2018-06-23T02:18:37.061Z,71
2018-06-23T02:18:49.457Z,71
2018-06-23T02:19:01.879Z,71
2018-06-23T02:19:14.276Z,71
2018-06-23T02:19:26.783Z,71
2018-06-23T02:19:39.214Z,71
2018-06-23T02:19:51.640Z,71
2018-06-23T02:20:04.068Z,71
2018-06-23T02:20:16.507Z,71
2018-06-23T02:20:28.910Z,71
2018-06-23T02:20:41.514Z,71
2018-06-23T02:20:53.926Z,71
2018-06-23T02:21:06.320Z,71
2018-06-23T02:21:18.722Z,71
2018-06-23T02:21:31.126Z,71
2018-06-23T02:21:43.533Z,71
2018-06-23T02:21:55.934Z,71
2018-06-23T02:22:08.389Z,71
2018-06-23T02:22:20.817Z,71
2018-06-23T02:22:33.215Z,71
2018-06-23T02:22:45.633Z,71
2018-06-23T02:22:58.046Z,71
2018-06-23T02:23:10.482Z,71
2018-06-23T02:23:22.923Z,71
2018-06-23T02:23:35.309Z,71
2018-06-23T02:23:47.706Z,71
2018-06-23T02:24:00.122Z,71
2018-06-23T02:24:12.552Z,71
2018-06-23T02:24:24.953Z,71
2018-06-23T02:24:37.367Z,71
2018-06-23T02:24:49.766Z,71
2018-06-23T02:25:02.165Z,71
2018-06-23T02:25:14.851Z,71
2018-06-23T02:25:27.272Z,71
2018-06-23T02:25:39.671Z,71
2018-06-23T02:25:52.080Z,71
2018-06-23T02:26:04.504Z,71
2018-06-23T02:26:16.917Z,71
2018-06-23T02:26:29.427Z,71
2018-06-23T02:26:41.825Z,71
2018-06-23T02:26:54.281Z,71
2018-06-23T02:27:06.690Z,70
2018-06-23T02:27:19.094Z,70
2018-06-23T02:27:31.512Z,70
2018-06-23T02:27:43.933Z,70
2018-06-23T02:27:56.337Z,71
2018-06-23T02:28:08.734Z,71
2018-06-23T02:28:21.180Z,71
2018-06-23T02:28:33.599Z,71
2018-06-23T02:28:45.993Z,71
2018-06-23T02:28:58.393Z,71
2018-06-23T02:29:10.788Z,71
2018-06-23T02:29:23.256Z,71
2018-06-23T02:29:35.836Z,71
2018-06-23T02:29:48.231Z,71
2018-06-23T02:30:00.638Z,71
2018-06-23T02:30:13.100Z,71
2018-06-23T02:30:25.548Z,71
2018-06-23T02:30:37.992Z,71
2018-06-23T02:30:50.401Z,71
2018-06-23T02:31:03.194Z,71
2018-06-23T02:31:15.620Z,71
2018-06-23T02:31:28.029Z,71
2018-06-23T02:31:40.512Z,71
2018-06-23T02:31:52.925Z,71
2018-06-23T02:32:05.385Z,71
2018-06-23T02:32:17.791Z,70
2018-06-23T02:32:30.233Z,70
2018-06-23T02:32:42.677Z,70
2018-06-23T02:32:55.117Z,70
2018-06-23T02:33:07.531Z,70
2018-06-23T02:33:19.971Z,70
2018-06-23T02:33:32.447Z,70
2018-06-23T02:33:44.867Z,70
2018-06-23T02:33:57.306Z,70
2018-06-23T02:34:09.732Z,70
2018-06-23T02:34:22.129Z,70
2018-06-23T02:34:34.558Z,70
2018-06-23T02:34:46.999Z,70
2018-06-23T02:34:59.410Z,70
2018-06-23T02:35:11.836Z,70
2018-06-23T02:35:24.248Z,70
2018-06-23T02:35:36.662Z,70
2018-06-23T02:35:49.113Z,70
2018-06-23T02:36:01.559Z,70
2018-06-23T02:36:14.031Z,70
2018-06-23T02:36:26.458Z,70
2018-06-23T02:36:38.864Z,70
2018-06-23T02:36:51.362Z,70
2018-06-23T02:37:03.819Z,70
2018-06-23T02:37:16.245Z,70
2018-06-23T02:37:28.746Z,70
2018-06-23T02:37:41.183Z,70
2018-06-23T02:37:53.608Z,70
2018-06-23T02:38:06.095Z,70
2018-06-23T02:38:18.599Z,70
2018-06-23T02:38:31.085Z,70
2018-06-23T02:38:43.500Z,70
2018-06-23T02:38:55.923Z,70
2018-06-23T02:39:08.356Z,70
2018-06-23T02:39:20.766Z,70
2018-06-23T02:39:33.217Z,70
2018-06-23T02:39:45.674Z,70
2018-06-23T02:39:58.090Z,70
2018-06-23T02:40:10.518Z,70
2018-06-23T02:40:22.997Z,70
2018-06-23T02:40:35.452Z,70
2018-06-23T02:40:47.902Z,70
2018-06-23T02:41:00.361Z,70
2018-06-23T02:41:12.798Z,70
2018-06-23T02:41:25.208Z,70
2018-06-23T02:41:37.620Z,69
2018-06-23T02:41:50.045Z,69
2018-06-23T02:42:02.468Z,69
2018-06-23T02:42:14.924Z,69
2018-06-23T02:42:27.350Z,69
2018-06-23T02:42:39.800Z,69
2018-06-23T02:42:52.240Z,69
2018-06-23T02:43:04.671Z,69
2018-06-23T02:43:17.077Z,69
2018-06-23T02:43:29.489Z,69
2018-06-23T02:43:41.923Z,69
2018-06-23T02:43:54.363Z,69
2018-06-23T02:44:06.818Z,69
2018-06-23T02:44:19.248Z,69
2018-06-23T02:44:31.704Z,69
2018-06-23T02:44:44.223Z,69
2018-06-23T02:44:56.686Z,69
2018-06-23T02:45:09.105Z,69
2018-06-23T02:45:21.533Z,69
2018-06-23T02:45:33.955Z,69
2018-06-23T02:45:46.366Z,69
2018-06-23T02:45:58.882Z,69
2018-06-23T02:46:11.347Z,69
2018-06-23T02:46:23.753Z,69
2018-06-23T02:46:36.184Z,69
2018-06-23T02:46:48.601Z,70
2018-06-23T02:47:01.057Z,70
2018-06-23T02:47:13.505Z,70
2018-06-23T02:47:25.970Z,70
2018-06-23T02:47:38.439Z,69
2018-06-23T02:47:50.894Z,69
2018-06-23T02:48:03.306Z,69
2018-06-23T02:48:15.733Z,69
2018-06-23T02:48:28.175Z,70
2018-06-23T02:48:40.691Z,70
2018-06-23T02:48:53.105Z,70
2018-06-23T02:49:05.587Z,70
2018-06-23T02:49:18.048Z,70
2018-06-23T02:49:30.523Z,70
2018-06-23T02:49:42.947Z,70
2018-06-23T02:49:55.386Z,70
2018-06-23T02:50:07.805Z,70
2018-06-23T02:50:20.240Z,70
2018-06-23T02:50:32.672Z,70
2018-06-23T02:50:45.089Z,70
2018-06-23T02:50:57.538Z,70
2018-06-23T02:51:09.973Z,70
2018-06-23T02:51:22.418Z,70
2018-06-23T02:51:35.015Z,70
2018-06-23T02:51:47.436Z,70
2018-06-23T02:51:59.886Z,70
2018-06-23T02:52:12.288Z,70
2018-06-23T02:52:24.705Z,70
2018-06-23T02:52:37.150Z,70
2018-06-23T02:52:49.627Z,70
2018-06-23T02:53:02.056Z,70
2018-06-23T02:53:14.502Z,70
2018-06-23T02:53:26.920Z,70
2018-06-23T02:53:39.350Z,70
2018-06-23T02:53:51.776Z,70
2018-06-23T02:54:04.233Z,70
2018-06-23T02:54:16.655Z,70
2018-06-23T02:54:29.123Z,70
2018-06-23T02:54:41.551Z,70
2018-06-23T02:54:53.985Z,70
2018-06-23T02:55:06.399Z,70
2018-06-23T02:55:18.807Z,70
2018-06-23T02:55:31.208Z,70
2018-06-23T02:55:43.625Z,70
2018-06-23T02:55:56.047Z,70
2018-06-23T02:56:08.502Z,70
2018-06-23T02:56:20.927Z,70
2018-06-23T02:56:33.370Z,70
2018-06-23T02:56:45.803Z,70
2018-06-23T02:56:58.218Z,69
2018-06-23T02:57:10.655Z,69